Time;durP1;ratioP1;P1;durP2;ratioP2;P2;SDS_P1;SDS_P2;PMS_P1;PMS_P2;Temp;Humidity;BMP_temperature;BMP_pressure;BME280_temperature;BME280_humidity;BME280_pressure;Samples;Min_cycle;Max_cycle;Signal;HPM_P1;HPM_P2
2022/05/18 00:02:18;;;;;;;3.27;1.73;;;15.30;94.20;;;;;;4920283;29;20310;-76
2022/05/18 00:04:44;;;;;;;2.60;2.10;;;15.30;94.30;;;;;;4928626;29;20203;-76
2022/05/18 00:07:09;;;;;;;4.83;2.73;;;15.30;94.40;;;;;;4927577;29;20237;-78
2022/05/18 00:09:36;;;;;;;3.17;2.80;;;15.30;95.40;;;;;;4928911;29;20663;-77
2022/05/18 00:12:02;;;;;;;3.87;2.10;;;15.20;94.70;;;;;;4914180;29;20275;-78
2022/05/18 00:14:27;;;;;;;5.63;2.10;;;15.20;93.50;;;;;;4923395;29;20221;-78
2022/05/18 00:16:52;;;;;;;4.60;2.03;;;15.20;94.20;;;;;;4921890;29;20338;-77
2022/05/18 00:19:18;;;;;;;2.30;1.80;;;15.10;94.40;;;;;;4928748;29;20183;-77
2022/05/18 00:21:44;;;;;;;4.40;2.30;;;15.10;94.40;;;;;;4912773;29;20195;-77
2022/05/18 00:24:10;;;;;;;2.23;1.80;;;15.00;94.20;;;;;;4928913;29;20195;-77
2022/05/18 00:26:36;;;;;;;6.40;3.03;;;15.00;94.10;;;;;;4926505;29;20245;-77
2022/05/18 00:29:01;;;;;;;5.23;2.40;;;15.00;94.40;;;;;;4928926;29;20552;-80
2022/05/18 00:31:27;;;;;;;7.77;3.13;;;14.90;94.00;;;;;;4924281;29;20219;-79
2022/05/18 00:33:52;;;;;;;3.50;2.43;;;14.90;94.00;;;;;;4928725;29;20190;-79
2022/05/18 00:36:17;;;;;;;3.50;2.23;;;14.90;94.20;;;;;;4919094;29;20723;-78
2022/05/18 00:38:43;;;;;;;6.80;2.30;;;14.90;94.50;;;;;;4926450;29;20282;-77
2022/05/18 00:41:08;;;;;;;5.33;2.63;;;14.80;94.00;;;;;;4928239;29;20199;-79
2022/05/18 00:43:39;;;;;;;3.33;2.23;;;14.80;93.80;;;;;;4926472;29;21133;-78
2022/05/18 00:46:09;;;;;;;4.97;2.03;;;14.80;93.50;;;;;;4928318;29;20253;-79
2022/05/18 00:48:35;;;;;;;6.77;2.67;;;14.70;93.30;;;;;;4926552;29;20206;-78
2022/05/18 00:51:04;;;;;;;7.90;2.43;;;14.70;93.20;;;;;;4928095;29;20298;-79
2022/05/18 00:53:51;;;;;;;3.83;2.30;;;14.60;93.10;;;;;;4926356;29;20199;-79
2022/05/18 00:56:24;;;;;;;2.80;2.27;;;14.60;93.10;;;;;;4924478;29;20278;-80
2022/05/18 00:58:59;;;;;;;3.50;2.93;;;14.50;93.00;;;;;;4913386;29;20568;-79
2022/05/18 01:01:25;;;;;;;5.33;2.10;;;14.50;93.40;;;;;;4911959;29;20194;-79
2022/05/18 01:03:53;;;;;;;4.90;2.40;;;14.50;93.60;;;;;;4928544;29;20313;-81
2022/05/18 01:06:45;;;;;;;4.27;2.43;;;14.50;93.30;;;;;;4918170;29;20598;-78
2022/05/18 01:09:32;;;;;;;4.23;2.30;;;14.50;94.00;;;;;;4928277;29;20207;-79
2022/05/18 01:11:58;;;;;;;5.17;2.53;;;14.40;93.70;;;;;;4926390;29;20393;-79
2022/05/18 01:14:28;;;;;;;5.13;2.13;;;14.40;93.50;;;;;;4928153;29;20189;-79
2022/05/18 01:16:54;;;;;;;5.97;2.27;;;14.40;93.20;;;;;;4923274;29;20254;-80
2022/05/18 01:19:37;;;;;;;4.60;2.77;;;14.30;93.40;;;;;;4928305;29;20258;-79
2022/05/18 01:22:24;;;;;;;2.63;2.00;;;14.30;93.00;;;;;;4924574;29;20753;-80
2022/05/18 01:25:00;;;;;;;4.00;2.10;;;14.30;92.70;;;;;;4928120;29;20200;-79
2022/05/18 01:27:26;;;;;;;3.83;2.13;;;14.20;92.40;;;;;;4915755;29;20368;-78
2022/05/18 01:29:53;;;;;;;2.83;1.87;;;14.20;92.20;;;;;;4927864;29;20214;-79
2022/05/18 01:32:19;;;;;;;3.83;1.93;;;14.20;92.10;;;;;;4927781;29;20234;-78
2022/05/18 01:34:45;;;;;;;4.83;2.13;;;14.10;92.20;;;;;;4932061;29;20277;-78
2022/05/18 01:37:14;;;;;;;3.07;1.73;;;14.10;92.30;;;;;;4921852;29;20222;-79
2022/05/18 01:39:52;;;;;;;5.63;2.27;;;14.10;92.60;;;;;;4931756;29;20275;-79
2022/05/18 01:42:29;;;;;;;2.40;2.20;;;14.00;91.40;;;;;;4918810;29;20190;-79
2022/05/18 01:44:54;;;;;;;4.23;1.93;;;14.00;90.90;;;;;;4924894;29;20197;-79
2022/05/18 01:47:20;;;;;;;2.80;1.87;;;14.00;90.90;;;;;;4929844;29;20286;-79
2022/05/18 01:49:47;;;;;;;2.77;1.50;;;13.90;91.10;;;;;;4931387;29;20651;-79
2022/05/18 01:52:13;;;;;;;2.20;1.60;;;13.90;91.20;;;;;;4929659;29;20266;-80
2022/05/18 01:54:44;;;;;;;2.33;1.80;;;13.80;91.00;;;;;;4931607;29;20195;-79
2022/05/18 01:57:10;;;;;;;4.90;2.30;;;13.80;91.20;;;;;;4929640;29;20211;-80
2022/05/18 01:59:37;;;;;;;3.70;2.10;;;13.80;91.30;;;;;;4932319;29;20765;-81
2022/05/18 02:02:06;;;;;;;2.87;2.23;;;13.70;90.70;;;;;;4929949;29;20241;-81
2022/05/18 02:04:33;;;;;;;2.07;1.73;;;13.70;90.50;;;;;;4931768;29;20182;-82
2022/05/18 02:07:00;;;;;;;2.50;1.53;;;13.70;90.40;;;;;;4920268;29;20195;-80
2022/05/18 02:09:26;;;;;;;1.80;1.70;;;13.70;90.30;;;;;;4932103;29;20249;-81
2022/05/18 02:11:52;;;;;;;2.93;1.63;;;13.60;90.10;;;;;;4923459;29;20222;-82
2022/05/18 02:14:18;;;;;;;4.63;1.70;;;13.60;88.30;;;;;;4931669;29;20609;-81
2022/05/18 02:16:43;;;;;;;4.50;2.03;;;13.60;88.00;;;;;;4916715;29;20210;-81
2022/05/18 02:19:09;;;;;;;7.13;1.60;;;13.50;88.50;;;;;;4932183;29;20195;-81
2022/05/18 02:21:34;;;;;;;3.07;1.37;;;13.50;88.20;;;;;;4924835;29;20199;-79
2022/05/18 02:24:00;;;;;;;2.77;1.63;;;13.50;86.10;;;;;;4931844;29;20195;-83
2022/05/18 02:26:25;;;;;;;4.47;1.60;;;13.50;86.60;;;;;;4929246;29;20306;-82
2022/05/18 02:28:51;;;;;;;4.60;1.70;;;13.50;86.00;;;;;;4926057;29;20230;-82
2022/05/18 02:31:16;;;;;;;1.80;1.27;;;13.50;86.10;;;;;;4918727;29;20634;-80
2022/05/18 02:33:42;;;;;;;1.57;1.23;;;13.40;83.90;;;;;;4930108;29;20269;-81
2022/05/18 02:36:10;;;;;;;2.87;1.50;;;13.40;83.90;;;;;;4931391;29;20301;-83
2022/05/18 02:38:37;;;;;;;6.20;1.60;;;13.40;82.50;;;;;;4929145;29;20199;-82
2022/05/18 02:41:03;;;;;;;1.57;1.47;;;13.40;83.30;;;;;;4931906;29;20242;-82
2022/05/18 02:43:28;;;;;;;4.83;1.70;;;13.30;83.10;;;;;;4928790;29;20248;-85
2022/05/18 02:46:21;;;;;;;1.30;1.10;;;13.30;82.10;;;;;;4935974;29;20616;-83
2022/05/18 02:48:47;;;;;;;4.13;1.50;;;13.30;82.70;;;;;;4924548;29;20797;-78
2022/05/18 02:51:15;;;;;;;2.53;1.17;;;13.30;84.20;;;;;;4930721;29;20219;-73
2022/05/18 02:53:41;;;;;;;1.77;1.63;;;13.20;81.40;;;;;;4928860;29;20207;-70
2022/05/18 02:56:11;;;;;;;1.67;1.10;;;13.20;81.70;;;;;;4930135;29;20191;-70
2022/05/18 02:58:42;;;;;;;2.03;1.47;;;13.20;80.50;;;;;;4928471;29;20199;-70
2022/05/18 03:01:14;;;;;;;1.37;1.20;;;13.20;81.20;;;;;;4930092;29;20202;-71
2022/05/18 03:03:40;;;;;;;1.47;1.10;;;13.10;79.00;;;;;;4927874;29;20214;-71
2022/05/18 03:06:08;;;;;;;2.53;1.00;;;13.10;81.80;;;;;;4929835;29;20209;-70
2022/05/18 03:08:37;;;;;;;2.83;1.77;;;13.10;79.60;;;;;;4927874;29;20215;-70
2022/05/18 03:11:03;;;;;;;3.83;1.23;;;13.10;79.10;;;;;;4929835;29;20222;-70
2022/05/18 03:13:28;;;;;;;2.57;1.27;;;13.00;79.30;;;;;;4928583;29;20234;-70
2022/05/18 03:15:55;;;;;;;1.60;1.30;;;13.00;78.60;;;;;;4929887;29;20219;-70
2022/05/18 03:18:21;;;;;;;2.63;1.67;;;13.00;79.50;;;;;;4927963;29;20234;-70
2022/05/18 03:23:34;;;;;;;1.63;1.40;;;13.00;78.20;;;;;;4923598;29;20245;-71
2022/05/18 03:26:02;;;;;;;2.50;1.40;;;12.90;78.80;;;;;;4927609;29;20202;-71
2022/05/18 03:28:27;;;;;;;2.67;1.33;;;12.90;79.80;;;;;;4919456;29;20195;-71
2022/05/18 03:30:53;;;;;;;2.97;1.83;;;12.90;77.90;;;;;;4929590;29;20274;-71
2022/05/18 03:33:18;;;;;;;3.03;1.40;;;12.90;79.10;;;;;;4927815;29;20203;-71
2022/05/18 03:35:46;;;;;;;2.43;1.10;;;12.90;78.00;;;;;;4929004;29;20250;-71
2022/05/18 03:38:11;;;;;;;3.87;1.23;;;12.90;78.30;;;;;;4927669;29;20234;-71
2022/05/18 03:40:38;;;;;;;4.33;1.30;;;12.80;77.80;;;;;;4929038;29;20215;-69
2022/05/18 03:43:04;;;;;;;1.33;1.00;;;12.80;78.30;;;;;;4926531;29;20210;-69
2022/05/18 03:45:30;;;;;;;1.67;1.57;;;12.80;77.30;;;;;;4929315;29;20238;-69
2022/05/18 03:47:56;;;;;;;2.20;1.40;;;12.80;76.80;;;;;;4927739;29;20210;-70
2022/05/18 03:50:22;;;;;;;1.67;1.10;;;12.80;77.80;;;;;;4929446;29;20719;-70
2022/05/18 03:52:47;;;;;;;3.70;1.73;;;12.80;77.30;;;;;;4927335;29;20195;-68
2022/05/18 03:55:13;;;;;;;2.17;1.43;;;12.80;76.30;;;;;;4928439;29;20240;-73
2022/05/18 03:57:38;;;;;;;4.93;1.30;;;12.80;75.80;;;;;;4927340;29;20240;-73
2022/05/18 04:00:06;;;;;;;1.57;1.13;;;12.80;76.00;;;;;;4928510;29;20187;-70
2022/05/18 04:02:32;;;;;;;1.63;1.37;;;12.80;77.00;;;;;;4927211;29;20202;-74
2022/05/18 04:04:57;;;;;;;2.17;1.30;;;12.80;77.00;;;;;;4929321;29;20655;-71
2022/05/18 04:07:23;;;;;;;1.60;1.50;;;12.80;76.40;;;;;;4927113;29;20616;-71
2022/05/18 04:09:48;;;;;;;1.60;1.33;;;12.80;76.00;;;;;;4922236;29;20201;-72
2022/05/18 04:12:14;;;;;;;4.33;1.27;;;12.80;75.30;;;;;;4926813;29;20195;-72
2022/05/18 04:14:39;;;;;;;5.20;1.40;;;12.80;75.60;;;;;;4928636;29;20198;-72
2022/05/18 04:17:05;;;;;;;1.63;1.23;;;12.80;76.40;;;;;;4926612;29;20206;-71
2022/05/18 04:19:30;;;;;;;1.37;1.23;;;12.80;75.90;;;;;;4928456;29;20210;-70
2022/05/18 04:21:56;;;;;;;1.83;1.40;;;12.80;75.40;;;;;;4926911;29;20209;-71
2022/05/18 04:24:22;;;;;;;2.13;1.23;;;12.80;76.40;;;;;;4928965;29;20194;-72
2022/05/18 04:26:47;;;;;;;8.40;1.50;;;12.80;76.20;;;;;;4927015;29;20694;-71
2022/05/18 04:29:13;;;;;;;2.23;1.20;;;12.80;75.50;;;;;;4928952;29;20189;-72
2022/05/18 04:31:38;;;;;;;2.97;1.50;;;12.80;74.50;;;;;;4926771;29;20507;-72
2022/05/18 04:34:04;;;;;;;3.80;1.30;;;12.80;76.40;;;;;;4928836;29;20186;-71
2022/05/18 04:36:29;;;;;;;4.57;1.40;;;12.80;75.90;;;;;;4917202;29;20222;-71
2022/05/18 04:38:55;;;;;;;1.50;1.10;;;12.90;76.20;;;;;;4928710;29;20216;-71
2022/05/18 04:41:20;;;;;;;3.13;1.80;;;12.90;76.00;;;;;;4926954;29;20199;-71
2022/05/18 04:43:46;;;;;;;3.47;1.13;;;12.90;76.20;;;;;;4926746;29;20431;-70
2022/05/18 04:46:11;;;;;;;6.03;1.33;;;12.90;76.20;;;;;;4929228;29;20187;-71
2022/05/18 04:48:37;;;;;;;1.50;1.20;;;13.00;76.90;;;;;;4926663;29;20297;-70
2022/05/18 04:51:05;;;;;;;2.30;1.63;;;13.00;75.50;;;;;;4928839;29;20225;-70
2022/05/18 04:53:31;;;;;;;6.13;1.40;;;13.00;75.10;;;;;;4926442;29;20806;-70
2022/05/18 04:55:57;;;;;;;3.70;1.40;;;13.00;74.50;;;;;;4928658;29;20201;-71
2022/05/18 04:58:22;;;;;;;3.30;1.20;;;13.10;75.10;;;;;;4926492;29;20202;-71
2022/05/18 05:00:57;;;;;;;1.73;1.43;;;13.10;75.30;;;;;;4928504;29;20222;-73
2022/05/18 05:03:23;;;;;;;2.10;1.63;;;13.10;75.40;;;;;;4919896;29;20210;-72
2022/05/18 05:05:48;;;;;;;5.03;2.03;;;13.10;74.50;;;;;;4928050;29;20609;-72
2022/05/18 05:08:17;;;;;;;3.60;1.50;;;13.20;75.00;;;;;;4926540;29;20195;-73
2022/05/18 05:10:42;;;;;;;2.37;2.17;;;13.20;74.60;;;;;;4928207;29;20330;-73
2022/05/18 05:13:08;;;;;;;1.27;1.17;;;13.20;74.60;;;;;;4926272;29;20657;-72
2022/05/18 05:15:33;;;;;;;4.40;1.60;;;13.10;74.70;;;;;;4929076;29;20187;-72
2022/05/18 05:17:59;;;;;;;2.07;1.67;;;13.20;74.90;;;;;;4927623;29;20198;-72
2022/05/18 05:20:24;;;;;;;4.13;1.70;;;13.20;75.80;;;;;;4926048;29;20666;-73
2022/05/18 05:22:50;;;;;;;1.93;1.17;;;13.20;76.50;;;;;;4928374;29;20278;-72
2022/05/18 05:25:15;;;;;;;2.47;1.60;;;13.20;75.50;;;;;;4926058;29;20281;-73
2022/05/18 05:27:41;;;;;;;1.80;1.27;;;13.20;75.20;;;;;;4927578;29;20242;-73
2022/05/18 05:30:08;;;;;;;2.87;1.97;;;13.30;75.60;;;;;;4925947;29;20202;-72
2022/05/18 05:32:34;;;;;;;1.63;1.53;;;13.30;77.60;;;;;;4927518;29;20258;-72
2022/05/18 05:35:01;;;;;;;2.70;1.53;;;13.30;77.60;;;;;;4925630;29;20239;-65
2022/05/18 05:37:26;;;;;;;8.17;3.20;;;13.30;75.60;;;;;;4927670;29;20198;-73
2022/05/18 05:39:52;;;;;;;1.70;1.60;;;13.30;76.70;;;;;;4925985;29;20203;-73
2022/05/18 05:42:18;;;;;;;1.90;1.67;;;13.40;76.20;;;;;;4927946;29;20743;-71
2022/05/18 05:44:50;;;;;;;3.37;1.63;;;13.40;77.00;;;;;;4925909;29;20739;-72
2022/05/18 05:47:16;;;;;;;5.67;2.00;;;13.40;76.20;;;;;;4919866;29;20233;-72
2022/05/18 05:49:42;;;;;;;4.20;2.63;;;13.40;77.10;;;;;;4925720;29;20246;-71
2022/05/18 05:52:09;;;;;;;5.70;2.37;;;13.50;78.20;;;;;;4927455;29;20218;-70
2022/05/18 05:54:35;;;;;;;6.40;3.23;;;13.50;76.90;;;;;;4924153;29;20207;-70
2022/05/18 05:57:04;;;;;;;3.80;2.50;;;13.60;78.90;;;;;;4927455;29;20674;-70
2022/05/18 05:59:31;;;;;;;5.90;2.60;;;13.70;79.00;;;;;;4919941;29;20342;-72
2022/05/18 06:02:02;;;;;;;6.07;2.23;;;13.70;77.70;;;;;;4927337;29;20203;-71
2022/05/18 06:04:30;;;;;;;2.57;2.27;;;13.80;76.90;;;;;;4925052;29;20638;-71
2022/05/18 06:06:55;;;;;;;3.60;2.10;;;13.90;77.60;;;;;;4927044;29;20204;-70
2022/05/18 06:09:21;;;;;;;3.20;1.93;;;13.90;78.30;;;;;;4925716;29;20207;-71
2022/05/18 06:11:50;;;;;;;4.20;2.10;;;14.00;77.80;;;;;;4927470;29;20208;-70
2022/05/18 06:14:16;;;;;;;4.23;2.33;;;14.10;78.40;;;;;;4925769;29;20750;-72
2022/05/18 06:16:42;;;;;;;3.37;1.70;;;14.20;77.40;;;;;;4913651;29;20195;-71
2022/05/18 06:19:08;;;;;;;3.30;2.47;;;14.20;78.10;;;;;;4928869;29;20279;-70
2022/05/18 06:21:34;;;;;;;2.57;1.93;;;14.30;77.90;;;;;;4931137;29;20195;-71
2022/05/18 06:24:00;;;;;;;3.30;2.20;;;14.40;78.10;;;;;;4929100;29;20704;-70
2022/05/18 06:26:26;;;;;;;1.70;1.60;;;14.40;77.90;;;;;;4930431;29;20290;-73
2022/05/18 06:28:53;;;;;;;2.70;2.13;;;14.40;77.20;;;;;;4929114;29;20206;-71
2022/05/18 06:31:18;;;;;;;4.63;2.17;;;14.50;78.00;;;;;;4930676;29;20698;-72
2022/05/18 06:33:44;;;;;;;2.77;2.20;;;14.50;78.80;;;;;;4928818;29;20207;-70
2022/05/18 06:36:10;;;;;;;4.07;2.43;;;14.60;78.00;;;;;;4930407;29;20720;-70
2022/05/18 06:38:36;;;;;;;13.33;2.17;;;14.60;79.00;;;;;;4928454;29;20192;-70
2022/05/18 06:43:48;;;;;;;2.23;1.83;;;14.80;79.60;;;;;;4917506;29;20242;-71
2022/05/18 06:46:13;;;;;;;3.77;1.77;;;14.90;78.90;;;;;;4930782;29;20226;-73
2022/05/18 06:48:42;;;;;;;3.90;2.10;;;14.90;78.40;;;;;;4928338;29;20931;-72
2022/05/18 06:51:08;;;;;;;6.57;2.43;;;15.00;79.30;;;;;;4930198;29;20212;-71
2022/05/18 06:53:34;;;;;;;3.50;2.27;;;15.10;79.50;;;;;;4928066;29;20204;-71
2022/05/18 06:55:59;;;;;;;3.10;2.27;;;15.20;78.70;;;;;;4930410;29;20791;-71
2022/05/18 06:58:25;;;;;;;3.97;2.27;;;15.20;79.50;;;;;;4928642;29;20624;-71
2022/05/18 07:00:50;;;;;;;3.03;2.00;;;15.30;79.20;;;;;;4929932;29;20196;-71
2022/05/18 07:03:16;;;;;;;3.03;1.87;;;15.30;78.90;;;;;;4928310;29;20213;-71
2022/05/18 07:05:43;;;;;;;3.47;2.07;;;15.30;79.50;;;;;;4930093;29;20215;-71
2022/05/18 07:08:09;;;;;;;3.43;1.97;;;15.40;80.00;;;;;;4928061;29;20199;-71
2022/05/18 07:10:34;;;;;;;4.10;2.43;;;15.40;79.60;;;;;;4929778;29;20202;-71
2022/05/18 07:13:00;;;;;;;2.70;2.10;;;15.40;80.90;;;;;;4921715;29;20304;-70
2022/05/18 07:15:25;;;;;;;2.60;2.40;;;15.50;80.60;;;;;;4929066;29;20275;-70
2022/05/18 07:17:51;;;;;;;2.77;2.37;;;15.50;81.10;;;;;;4929435;29;20218;-70
2022/05/18 07:20:17;;;;;;;6.00;3.07;;;15.60;81.10;;;;;;4927692;29;20210;-71
2022/05/18 07:22:43;;;;;;;4.73;2.37;;;15.70;81.50;;;;;;4922244;29;20202;-70
2022/05/18 07:25:09;;;;;;;3.87;2.50;;;15.80;81.80;;;;;;4928038;29;20268;-70
2022/05/18 07:27:34;;;;;;;7.63;3.10;;;15.90;81.40;;;;;;4929297;29;20315;-70
2022/05/18 07:30:02;;;;;;;4.17;2.67;;;16.00;82.20;;;;;;4926969;29;20308;-70
2022/05/18 07:32:28;;;;;;;5.10;2.40;;;16.00;81.40;;;;;;4929525;29;20201;-70
2022/05/18 07:34:54;;;;;;;4.07;2.17;;;16.10;82.20;;;;;;4927991;29;20545;-71
2022/05/18 07:37:20;;;;;;;4.20;2.33;;;16.20;81.90;;;;;;4911139;29;20586;-69
2022/05/18 07:39:46;;;;;;;3.67;2.23;;;16.30;82.30;;;;;;4927390;29;20756;-69
2022/05/18 07:42:11;;;;;;;2.70;2.50;;;16.30;81.60;;;;;;4925535;29;20201;-70
2022/05/18 07:44:37;;;;;;;5.07;2.30;;;16.30;82.60;;;;;;4927778;29;20211;-70
2022/05/18 07:47:05;;;;;;;6.50;2.90;;;16.30;81.40;;;;;;4929515;29;20671;-70
2022/05/18 07:49:38;;;;;;;4.23;2.30;;;16.30;81.80;;;;;;4919923;29;20249;-70
2022/05/18 07:52:05;;;;;;;2.90;2.20;;;16.30;81.60;;;;;;4928717;29;20234;-69
2022/05/18 07:54:31;;;;;;;4.37;3.17;;;16.40;82.50;;;;;;4927018;29;20228;-70
2022/05/18 07:56:56;;;;;;;5.23;2.77;;;16.50;83.30;;;;;;4928416;29;20233;-68
2022/05/18 07:59:22;;;;;;;4.83;2.80;;;16.50;83.50;;;;;;4926380;29;20207;-71
2022/05/18 08:01:47;;;;;;;4.30;2.60;;;16.50;83.80;;;;;;4928642;29;21018;-72
2022/05/18 08:04:14;;;;;;;5.50;2.67;;;16.60;84.60;;;;;;4926847;29;20294;-72
2022/05/18 08:06:40;;;;;;;3.20;2.67;;;16.60;84.20;;;;;;4928042;29;20263;-74
2022/05/18 08:09:06;;;;;;;5.23;3.03;;;16.70;84.10;;;;;;4926743;29;20204;-71
2022/05/18 08:17:00;;;;;;;6.57;3.17;;;17.00;84.80;;;;;;4921406;29;20619;-70
2022/05/18 08:19:26;;;;;;;4.13;3.17;;;17.00;84.80;;;;;;4926504;29;20221;-72
2022/05/18 08:21:51;;;;;;;4.83;3.10;;;17.10;85.40;;;;;;4925479;29;20221;-71
2022/05/18 08:24:17;;;;;;;3.60;2.90;;;17.10;85.10;;;;;;4925976;29;20243;-72
2022/05/18 08:26:43;;;;;;;6.43;3.73;;;17.10;85.20;;;;;;4928023;29;20212;-72
2022/05/18 08:29:09;;;;;;;4.23;2.83;;;17.20;86.00;;;;;;4926218;29;20205;-71
2022/05/18 08:31:35;;;;;;;9.13;3.40;;;17.30;85.00;;;;;;4926697;29;20304;-72
2022/05/18 08:34:01;;;;;;;3.20;2.90;;;17.40;84.80;;;;;;4926339;29;20292;-71
2022/05/18 08:36:27;;;;;;;3.67;3.37;;;17.40;85.60;;;;;;4927615;29;20340;-71
2022/05/18 08:38:54;;;;;;;2.87;2.63;;;17.40;85.20;;;;;;4926032;29;20350;-70
2022/05/18 08:41:34;;;;;;;5.33;2.50;;;17.50;85.70;;;;;;4928457;29;20217;-73
2022/05/18 08:44:05;;;;;;;6.43;2.97;;;17.60;86.70;;;;;;4915502;29;20659;-75
2022/05/18 08:46:44;;;;;;;4.17;3.27;;;17.80;87.10;;;;;;4926145;29;20231;-72
2022/05/18 08:49:12;;;;;;;5.20;3.07;;;17.90;86.80;;;;;;4926121;29;20214;-68
2022/05/18 08:51:58;;;;;;;3.40;3.10;;;18.00;88.10;;;;;;4927988;29;20284;-67
2022/05/18 08:54:50;;;;;;;7.47;3.70;;;18.10;87.60;;;;;;4918216;29;20203;-67
2022/05/18 08:57:23;;;;;;;4.03;3.57;;;18.20;88.20;;;;;;4920738;29;20345;-68
2022/05/18 08:59:55;;;;;;;8.17;4.30;;;18.20;88.20;;;;;;4926405;29;20289;-68
2022/05/18 09:02:26;;;;;;;6.63;3.23;;;18.30;87.30;;;;;;4917661;29;20198;-69
2022/05/18 09:05:03;;;;;;;5.53;3.57;;;18.40;87.40;;;;;;4922107;29;20693;-69
2022/05/18 09:07:36;;;;;;;7.17;4.60;;;18.50;88.10;;;;;;4926044;29;20641;-69
2022/05/18 09:10:21;;;;;;;4.00;3.57;;;18.60;89.20;;;;;;4923457;29;20298;-77
2022/05/18 09:12:50;;;;;;;10.20;4.07;;;18.70;90.30;;;;;;4924010;29;20561;-60
2022/05/18 09:15:19;;;;;;;7.00;3.37;;;19.00;86.40;;;;;;4924616;29;20212;-63
2022/05/18 09:17:59;;;;;;;8.23;3.60;;;19.20;85.40;;;;;;4927183;29;20729;-62
2022/05/18 09:20:51;;;;;;;4.40;3.53;;;19.30;84.60;;;;;;4925918;29;20238;-62
2022/05/18 09:23:45;;;;;;;5.10;4.00;;;19.40;86.40;;;;;;4924082;29;20187;-62
2022/05/18 09:26:27;;;;;;;6.27;3.73;;;19.70;85.80;;;;;;4927963;29;21065;-63
2022/05/18 09:29:08;;;;;;;7.23;3.57;;;19.70;86.70;;;;;;4925499;29;20214;-62
2022/05/18 09:31:50;;;;;;;5.30;3.80;;;19.80;85.30;;;;;;4925298;29;20782;-62
2022/05/18 09:34:28;;;;;;;3.77;3.10;;;19.90;85.60;;;;;;4925942;29;20201;-62
2022/05/18 09:37:28;;;;;;;6.23;3.70;;;20.10;83.60;;;;;;4927097;29;20716;-61
2022/05/18 09:40:04;;;;;;;5.13;3.73;;;20.30;84.00;;;;;;4925355;29;20201;-62
2022/05/18 09:42:37;;;;;;;5.90;4.33;;;20.40;85.10;;;;;;4917638;29;20202;-62
2022/05/18 09:45:13;;;;;;;5.93;3.60;;;20.50;83.80;;;;;;4922736;29;20207;-62
2022/05/18 09:48:06;;;;;;;6.23;3.87;;;20.80;84.20;;;;;;4914856;29;20197;-62
2022/05/18 09:50:32;;;;;;;7.10;4.20;;;21.00;84.10;;;;;;4913876;29;20265;-62
2022/05/18 09:52:58;;;;;;;6.23;4.37;;;21.20;84.60;;;;;;4928571;29;20194;-61
2022/05/18 09:55:26;;;;;;;3.50;3.20;;;21.20;82.80;;;;;;4929074;29;20330;-62
2022/05/18 09:58:07;;;;;;;4.30;3.57;;;21.20;84.80;;;;;;4930481;29;20191;-63
2022/05/18 10:00:35;;;;;;;5.63;3.93;;;21.30;83.90;;;;;;4930432;29;20555;-62
2022/05/18 10:08:57;;;;;;;4.07;3.53;;;21.60;82.90;;;;;;4929559;29;20640;-60
2022/05/18 10:11:32;;;;;;;4.35;4.00;;;21.80;82.20;;;;;;4930839;29;20670;-62
2022/05/18 10:14:32;;;;;;;4.50;4.13;;;21.80;82.80;;;;;;4923142;29;20297;-63
2022/05/18 10:17:05;;;;;;;6.50;4.30;;;21.90;83.20;;;;;;4920641;29;20278;-63
2022/05/18 10:19:45;;;;;;;5.00;3.70;;;22.20;82.30;;;;;;4923181;29;20202;-62
2022/05/18 10:22:17;;;;;;;6.97;5.03;;;22.20;80.80;;;;;;4930301;29;20203;-62
2022/05/18 10:24:50;;;;;;;4.70;3.78;;;22.30;82.20;;;;;;4923511;29;20241;-62
2022/05/18 10:27:15;;;;;;;9.55;5.57;;;22.40;82.30;;;;;;4926803;29;20222;-62
2022/05/18 10:29:43;;;;;;;8.03;5.63;;;22.60;81.60;;;;;;4928771;29;20289;-63
2022/05/18 10:32:19;;;;;;;5.85;5.28;;;22.40;83.90;;;;;;4930280;29;20321;-63
2022/05/18 10:34:50;;;;;;;5.37;4.83;;;22.30;84.50;;;;;;4923352;29;20237;-62
2022/05/18 10:37:33;;;;;;;7.72;5.85;;;22.60;82.70;;;;;;4930500;29;20262;-63
2022/05/18 10:40:18;;;;;;;8.23;5.97;;;22.70;82.30;;;;;;4926772;29;20215;-63
2022/05/18 10:42:53;;;;;;;6.63;6.03;;;22.70;84.80;;;;;;4918425;29;20183;-63
2022/05/18 10:45:25;;;;;;;7.53;6.45;;;22.90;84.70;;;;;;4928639;29;20222;-62
2022/05/18 10:47:51;;;;;;;10.63;7.05;;;22.90;84.90;;;;;;4929775;29;20270;-63
2022/05/18 10:50:25;;;;;;;6.95;5.80;;;23.00;85.00;;;;;;4928487;29;20233;-62
2022/05/18 10:52:54;;;;;;;6.95;6.35;;;23.20;85.20;;;;;;4925213;29;20215;-61
2022/05/18 10:55:24;;;;;;;7.25;6.05;;;23.40;82.00;;;;;;4930062;29;20235;-62
2022/05/18 10:58:09;;;;;;;7.30;5.80;;;23.60;82.60;;;;;;4928563;29;20207;-63
2022/05/18 11:00:47;;;;;;;7.13;6.00;;;23.90;83.10;;;;;;4924771;29;20196;-62
2022/05/18 11:03:45;;;;;;;9.68;7.28;;;24.20;82.80;;;;;;4928838;29;20212;-62
2022/05/18 11:06:19;;;;;;;13.20;5.78;;;24.50;80.80;;;;;;4919365;29;20232;-62
2022/05/18 11:08:44;;;;;;;8.98;6.32;;;25.00;80.80;;;;;;4929924;29;20196;-63
2022/05/18 11:11:29;;;;;;;18.73;10.73;;;25.00;79.40;;;;;;4928158;29;20216;-82
2022/05/18 11:14:21;;;;;;;10.30;5.57;;;25.30;77.80;;;;;;4930824;29;20250;-79
2022/05/18 11:17:09;;;;;;;7.05;6.28;;;24.90;83.30;;;;;;4922744;29;20222;-79
2022/05/18 11:19:59;;;;;;;5.85;4.80;;;24.40;85.20;;;;;;4929274;29;20659;-69
2022/05/18 11:22:39;;;;;;;6.68;6.07;;;23.50;79.00;;;;;;4927832;29;20206;-68
2022/05/18 11:25:27;;;;;;;7.13;5.45;;;23.10;84.20;;;;;;4928414;29;20205;-68
2022/05/18 11:28:00;;;;;;;10.13;6.05;;;22.90;85.80;;;;;;4927112;29;20349;-67
2022/05/18 11:30:40;;;;;;;6.13;5.55;;;23.40;78.90;;;;;;4928382;29;20638;-67
2022/05/18 11:33:27;;;;;;;5.18;4.68;;;23.90;79.80;;;;;;4927302;29;21147;-68
2022/05/18 11:36:12;;;;;;;7.20;5.63;;;24.20;78.30;;;;;;4926291;29;20348;-67
2022/05/18 11:38:55;;;;;;;6.18;5.65;;;24.40;78.20;;;;;;4929211;29;20283;-68
2022/05/18 11:41:47;;;;;;;7.13;5.75;;;24.70;76.60;;;;;;4925838;29;20524;-65
2022/05/18 11:44:56;;;;;;;7.18;5.78;;;25.20;75.70;;;;;;4926553;29;20192;-67
2022/05/18 11:48:04;;;;;;;5.22;4.30;;;25.40;73.40;;;;;;4925661;29;20216;-66
2022/05/18 11:50:52;;;;;;;5.00;4.57;;;26.00;73.90;;;;;;4920516;29;20217;-65
2022/05/18 11:53:32;;;;;;;5.65;4.43;;;26.70;69.10;;;;;;4927343;29;20226;-69
2022/05/18 11:56:29;;;;;;;5.85;4.82;;;27.10;70.40;;;;;;4929335;29;20197;-66
2022/05/18 12:02:14;;;;;;;5.93;4.38;;;27.80;68.20;;;;;;4920629;29;20610;-67
2022/05/18 12:05:17;;;;;;;8.70;4.75;;;27.90;63.40;;;;;;4928032;29;20201;-65
2022/05/18 12:08:01;;;;;;;6.57;4.72;;;27.70;64.60;;;;;;4925288;29;20558;-65
2022/05/18 12:10:32;;;;;;;4.82;4.35;;;27.70;63.40;;;;;;4927633;29;20573;-67
2022/05/18 12:13:23;;;;;;;5.82;4.20;;;27.70;63.80;;;;;;4925053;29;20218;-67
2022/05/18 12:16:16;;;;;;;4.50;4.10;;;27.90;63.50;;;;;;4928431;29;20179;-67
2022/05/18 12:19:05;;;;;;;5.78;5.13;;;28.20;62.70;;;;;;4927220;29;20199;-67
2022/05/18 12:21:39;;;;;;;5.30;4.40;;;28.70;61.00;;;;;;4924702;29;20222;-66
2022/05/18 12:24:07;;;;;;;8.23;5.47;;;28.80;62.30;;;;;;4928504;29;20213;-66
2022/05/18 12:26:36;;;;;;;5.72;4.75;;;29.10;63.40;;;;;;4925985;29;20210;-68
2022/05/18 12:29:04;;;;;;;7.03;4.20;;;29.40;60.20;;;;;;4928421;29;20548;-68
2022/05/18 12:31:31;;;;;;;9.65;5.53;;;29.40;59.00;;;;;;4925697;29;20227;-69
2022/05/18 12:34:11;;;;;;;5.97;4.75;;;29.40;58.50;;;;;;4928288;29;20668;-66
2022/05/18 12:36:49;;;;;;;5.47;4.85;;;29.60;61.00;;;;;;4925898;29;20623;-67
2022/05/18 12:39:31;;;;;;;5.07;4.65;;;29.80;56.70;;;;;;4928425;29;20195;-65
2022/05/18 12:42:00;;;;;;;4.05;3.67;;;29.90;57.50;;;;;;4926310;29;20618;-68
2022/05/18 12:44:40;;;;;;;4.88;4.18;;;30.20;56.80;;;;;;4928344;29;20225;-66
2022/05/18 12:47:24;;;;;;;4.75;4.30;;;30.00;55.50;;;;;;4924697;29;20206;-67
2022/05/18 12:50:00;;;;;;;5.63;4.65;;;29.90;57.00;;;;;;4928102;29;20326;-67
2022/05/18 12:52:43;;;;;;;5.38;4.72;;;30.60;56.70;;;;;;4917320;29;20226;-67
2022/05/18 12:55:30;;;;;;;5.10;4.53;;;30.40;55.10;;;;;;4927064;29;20194;-66
2022/05/18 12:58:34;;;;;;;6.53;4.30;;;30.20;54.80;;;;;;4921855;29;20206;-66
2022/05/18 13:01:14;;;;;;;4.20;3.80;;;30.50;54.90;;;;;;4921951;29;20289;-67
2022/05/18 13:03:49;;;;;;;8.27;4.28;;;30.10;55.20;;;;;;4909682;29;20186;-67
2022/05/18 13:06:21;;;;;;;5.68;4.30;;;30.50;54.90;;;;;;4925075;29;20952;-66
2022/05/18 13:09:24;;;;;;;5.93;5.32;;;30.20;54.00;;;;;;4925950;29;20203;-66
2022/05/18 13:11:49;;;;;;;4.60;4.20;;;30.40;53.90;;;;;;4917062;29;20227;-66
2022/05/18 13:14:30;;;;;;;4.75;4.15;;;30.70;53.00;;;;;;4926122;29;20625;-67
2022/05/18 13:16:59;;;;;;;5.50;4.50;;;31.00;53.90;;;;;;4923156;29;20202;-66
2022/05/18 13:19:35;;;;;;;6.28;4.55;;;30.80;53.00;;;;;;4925639;29;20757;-74
2022/05/18 13:22:15;;;;;;;8.27;3.97;;;30.70;53.20;;;;;;4923897;29;20213;-69
2022/05/18 13:24:55;;;;;;;4.93;4.22;;;30.50;54.50;;;;;;4927641;29;20198;-69
2022/05/18 13:27:31;;;;;;;4.90;3.70;;;30.90;53.70;;;;;;4922957;29;20226;-68